createdAt,value
2019-01-25T00:01:20.077Z,24.30
2019-01-25T00:03:48.445Z,23.30
2019-01-25T00:06:16.726Z,23.60
2019-01-25T00:08:44.694Z,24.00
2019-01-25T00:11:12.938Z,23.70
2019-01-25T00:13:41.347Z,24.00
2019-01-25T00:16:09.317Z,23.90
2019-01-25T00:18:37.285Z,23.40
2019-01-25T00:21:05.587Z,23.60
2019-01-25T00:23:33.739Z,23.50
2019-01-25T00:26:01.910Z,23.60
2019-01-25T00:28:30.085Z,23.70
2019-01-25T00:30:58.259Z,23.90
2019-01-25T00:33:26.431Z,24.70
2019-01-25T00:35:54.504Z,24.10
2019-01-25T00:38:22.474Z,23.80
2019-01-25T00:40:50.442Z,24.20
2019-01-25T00:43:18.720Z,24.10
2019-01-25T00:45:50.324Z,24.50
2019-01-25T00:48:18.050Z,24.00
2019-01-25T00:50:47.837Z,24.20
2019-01-25T00:53:15.798Z,23.90
2019-01-25T00:55:43.768Z,24.60
2019-01-25T00:58:11.872Z,24.20
2019-01-25T01:00:39.811Z,24.50
2019-01-25T01:03:07.903Z,24.60
2019-01-25T01:05:35.976Z,24.70
2019-01-25T01:08:05.385Z,24.80
2019-01-25T01:10:36.471Z,24.90
2019-01-25T01:13:08.052Z,25.20
2019-01-25T01:15:37.688Z,25.00
2019-01-25T01:18:08.919Z,24.90
2019-01-25T01:20:38.092Z,25.00
2019-01-25T01:23:06.828Z,25.10
2019-01-25T01:25:34.781Z,24.70
2019-01-25T01:28:02.733Z,24.80
2019-01-25T01:30:30.695Z,25.20
2019-01-25T01:32:58.771Z,25.40
2019-01-25T01:35:26.964Z,25.70
2019-01-25T01:37:54.934Z,25.80
2019-01-25T01:40:22.906Z,25.40
2019-01-25T01:42:50.845Z,25.60
2019-01-25T01:45:18.947Z,25.50
2019-01-25T01:47:47.018Z,25.90
2019-01-25T01:50:15.265Z,26.10
2019-01-25T01:52:43.364Z,25.90
2019-01-25T01:55:11.240Z,25.90
2019-01-25T01:57:39.166Z,26.00
2019-01-25T02:00:07.175Z,26.40
2019-01-25T02:02:35.344Z,26.40
2019-01-25T02:05:03.521Z,26.50
2019-01-25T02:07:31.729Z,26.70
2019-01-25T02:09:59.765Z,26.80
2019-01-25T02:12:28.812Z,26.90
2019-01-25T02:14:57.035Z,27.40
2019-01-25T02:17:25.123Z,27.70
2019-01-25T02:19:53.486Z,27.90
2019-01-25T02:22:21.433Z,28.00
2019-01-25T02:24:49.415Z,28.00
2019-01-25T02:27:17.396Z,28.00
2019-01-25T02:29:45.569Z,27.30
2019-01-25T02:32:13.539Z,28.40
2019-01-25T02:34:41.612Z,28.50
2019-01-25T02:37:09.592Z,28.30
2019-01-25T02:39:37.858Z,28.40
2019-01-25T02:42:06.133Z,28.60
2019-01-25T02:44:34.310Z,28.40
2019-01-25T02:47:03.737Z,28.50
2019-01-25T02:49:32.077Z,28.50
2019-01-25T02:52:01.540Z,28.40
2019-01-25T02:54:29.769Z,28.40
2019-01-25T02:56:57.883Z,28.70
2019-01-25T02:59:26.021Z,29.10
2019-01-25T03:01:54.195Z,28.60
2019-01-25T03:04:22.159Z,28.30
2019-01-25T03:06:50.233Z,28.80
2019-01-25T03:09:18.511Z,28.80
2019-01-25T03:11:46.584Z,29.20
2019-01-25T03:14:14.841Z,29.00
2019-01-25T03:16:43.134Z,28.90
2019-01-25T03:19:11.181Z,29.30
2019-01-25T03:21:39.287Z,29.00
2019-01-25T03:24:07.452Z,29.50
2019-01-25T03:26:35.524Z,29.70
2019-01-25T03:29:03.494Z,30.50
2019-01-25T03:31:31.463Z,31.60
2019-01-25T03:34:01.466Z,32.10
2019-01-25T03:36:29.659Z,32.70
2019-01-25T03:38:57.807Z,32.90
2019-01-25T03:41:25.999Z,30.40
2019-01-25T03:43:54.074Z,31.10
2019-01-25T03:46:23.039Z,32.30
2019-01-25T03:48:51.139Z,32.60
2019-01-25T03:51:19.317Z,32.00
2019-01-25T03:53:47.283Z,32.00
2019-01-25T03:56:15.426Z,32.60
2019-01-25T03:58:43.431Z,32.10
2019-01-25T04:01:11.924Z,32.90
2019-01-25T04:03:39.953Z,32.70
2019-01-25T04:06:08.059Z,33.30
2019-01-25T04:08:37.834Z,33.50
2019-01-25T04:11:05.921Z,33.80
2019-01-25T04:13:34.008Z,33.90
2019-01-25T04:16:02.257Z,34.20
2019-01-25T04:18:31.652Z,34.60
2019-01-25T04:20:59.626Z,34.30
2019-01-25T04:23:27.627Z,35.20
2019-01-25T04:25:55.591Z,34.60
2019-01-25T04:28:23.772Z,35.40
2019-01-25T04:30:51.842Z,34.80
2019-01-25T04:33:20.896Z,35.10
2019-01-25T04:35:50.187Z,35.70
2019-01-25T04:38:18.309Z,35.70
2019-01-25T04:40:46.354Z,36.00
2019-01-25T04:43:14.452Z,36.40
2019-01-25T04:45:42.530Z,36.80
2019-01-25T04:48:11.620Z,36.00
2019-01-25T04:50:39.590Z,36.70
2019-01-25T04:53:09.248Z,36.90
2019-01-25T04:55:37.449Z,36.80
2019-01-25T04:58:05.956Z,36.80
2019-01-25T05:00:34.133Z,37.70
2019-01-25T05:03:02.410Z,37.70
2019-01-25T05:05:30.789Z,37.80
2019-01-25T05:07:58.937Z,38.00
2019-01-25T05:10:27.156Z,39.00
2019-01-25T05:12:55.899Z,38.90
2019-01-25T05:15:24.097Z,39.60
2019-01-25T05:17:52.446Z,39.70
2019-01-25T05:20:20.451Z,40.50
2019-01-25T05:22:49.899Z,40.20
2019-01-25T05:25:19.221Z,40.20
2019-01-25T05:27:48.529Z,40.10
2019-01-25T05:30:16.623Z,40.40
2019-01-25T05:32:45.283Z,40.60
2019-01-25T05:35:13.482Z,40.50
2019-01-25T05:37:42.667Z,40.60
2019-01-25T05:40:11.541Z,40.70
2019-01-25T05:42:39.804Z,40.70
2019-01-25T05:45:07.794Z,40.60
2019-01-25T05:47:35.869Z,40.50
2019-01-25T05:50:03.966Z,40.70
2019-01-25T05:52:32.055Z,40.50
2019-01-25T05:55:00.994Z,40.30
2019-01-25T05:57:29.406Z,40.40
2019-01-25T05:59:58.692Z,40.20
2019-01-25T06:02:27.062Z,40.40
2019-01-25T06:04:55.363Z,40.50
2019-01-25T06:07:24.878Z,40.20
2019-01-25T06:09:52.923Z,40.60
2019-01-25T06:12:20.884Z,40.70
2019-01-25T06:14:48.980Z,41.10
2019-01-25T06:17:17.130Z,41.20
2019-01-25T06:19:45.433Z,41.10
2019-01-25T06:22:13.490Z,40.80
2019-01-25T06:24:41.417Z,41.90
2019-01-25T06:27:09.518Z,43.70
2019-01-25T06:29:37.517Z,43.80
2019-01-25T06:32:05.591Z,44.20
2019-01-25T06:34:33.764Z,44.90
2019-01-25T06:37:01.938Z,45.10
2019-01-25T06:39:30.117Z,45.20
2019-01-25T06:41:58.266Z,45.20
2019-01-25T06:44:27.703Z,46.30
2019-01-25T06:46:55.861Z,47.00
2019-01-25T06:49:24.034Z,47.40
2019-01-25T06:51:52.111Z,46.90
2019-01-25T06:54:20.008Z,46.80
2019-01-25T06:56:48.037Z,46.80
2019-01-25T06:59:20.790Z,47.30
2019-01-25T07:02:25.663Z,48.00
2019-01-25T07:04:55.384Z,48.40
2019-01-25T07:07:30.417Z,47.90
2019-01-25T07:09:58.582Z,48.20
2019-01-25T07:12:26.551Z,48.20
2019-01-25T07:14:54.830Z,49.10
2019-01-25T07:17:23.105Z,48.50
2019-01-25T07:19:52.799Z,48.80
2019-01-25T07:22:21.193Z,48.80
2019-01-25T07:24:49.242Z,48.80
2019-01-25T07:27:17.644Z,48.90
2019-01-25T07:29:45.705Z,49.10
2019-01-25T07:32:13.702Z,48.70
2019-01-25T07:34:41.765Z,47.30
2019-01-25T07:37:10.014Z,46.00
2019-01-25T07:39:38.071Z,45.00
2019-01-25T07:42:06.106Z,44.00
2019-01-25T07:44:34.151Z,43.70
2019-01-25T07:47:02.445Z,42.30
2019-01-25T07:49:30.368Z,41.80
2019-01-25T07:51:58.392Z,41.10
2019-01-25T07:54:26.410Z,40.70
2019-01-25T07:56:54.405Z,40.10
2019-01-25T07:59:22.375Z,38.80
2019-01-25T08:01:50.327Z,37.30
2019-01-25T08:04:18.291Z,37.70
2019-01-25T08:06:46.488Z,37.90
2019-01-25T08:09:14.503Z,37.50
2019-01-25T08:11:42.660Z,37.80
2019-01-25T08:14:10.690Z,37.10
2019-01-25T08:16:38.720Z,36.80
2019-01-25T08:19:06.835Z,35.70
2019-01-25T08:21:36.146Z,36.10
2019-01-25T08:24:04.441Z,36.00
2019-01-25T08:26:32.615Z,35.60
2019-01-25T08:29:00.877Z,35.30
2019-01-25T08:31:28.977Z,34.90
2019-01-25T08:33:56.985Z,34.40
2019-01-25T08:36:25.094Z,33.50
2019-01-25T08:38:53.034Z,33.20
2019-01-25T08:41:21.252Z,32.70
2019-01-25T08:43:49.428Z,32.10
2019-01-25T08:46:17.485Z,30.70
2019-01-25T08:48:45.790Z,30.90
2019-01-25T08:51:13.735Z,30.20
2019-01-25T08:53:41.796Z,30.00
2019-01-25T08:56:09.858Z,30.00
2019-01-25T08:58:39.245Z,29.80
2019-01-25T09:01:07.343Z,29.80
2019-01-25T09:03:35.293Z,29.60
2019-01-25T09:06:03.384Z,27.00
2019-01-25T09:08:31.355Z,26.30
2019-01-25T09:10:59.607Z,25.60
2019-01-25T09:13:28.516Z,25.80
2019-01-25T09:15:56.592Z,26.50
2019-01-25T09:18:24.853Z,26.70
2019-01-25T09:20:52.810Z,26.10
2019-01-25T09:23:21.422Z,27.10
2019-01-25T09:25:51.459Z,27.50
2019-01-25T09:28:19.207Z,27.10
2019-01-25T09:30:47.159Z,26.80
2019-01-25T09:33:15.351Z,26.50
2019-01-25T09:35:43.293Z,24.60
2019-01-25T09:38:11.285Z,24.60
2019-01-25T09:40:39.564Z,24.40
2019-01-25T09:43:07.512Z,25.10
2019-01-25T09:45:35.604Z,24.20
2019-01-25T09:48:03.547Z,24.40
2019-01-25T09:50:31.545Z,24.30
2019-01-25T09:52:59.514Z,24.70
2019-01-25T09:55:27.459Z,25.30
2019-01-25T09:57:55.512Z,25.20
2019-01-25T10:00:23.525Z,26.60
2019-01-25T10:02:51.670Z,27.30
2019-01-25T10:05:19.641Z,27.00
2019-01-25T10:07:47.654Z,27.10
2019-01-25T10:10:15.820Z,27.30
2019-01-25T10:12:44.098Z,26.30
2019-01-25T10:15:12.235Z,26.50
2019-01-25T10:17:40.234Z,26.20
2019-01-25T10:20:08.305Z,28.50
2019-01-25T10:22:38.406Z,28.30
2019-01-25T10:25:06.481Z,28.70
2019-01-25T10:27:34.571Z,28.70
2019-01-25T10:30:02.732Z,28.30
2019-01-25T10:32:30.712Z,28.20
2019-01-25T10:34:58.654Z,28.60
2019-01-25T10:37:28.422Z,28.20
2019-01-25T10:39:56.570Z,28.00
2019-01-25T10:42:27.333Z,27.30
2019-01-25T10:44:55.344Z,27.20
2019-01-25T10:47:23.340Z,26.90
2019-01-25T10:49:51.310Z,26.30
2019-01-25T10:52:19.278Z,26.00
2019-01-25T10:54:47.256Z,25.50
2019-01-25T10:57:15.218Z,24.00
2019-01-25T10:59:43.496Z,24.30
2019-01-25T11:02:11.464Z,24.40
2019-01-25T11:04:40.660Z,24.80
2019-01-25T11:07:08.943Z,24.80
2019-01-25T11:09:38.256Z,24.50
2019-01-25T11:12:06.313Z,23.70
2019-01-25T11:14:34.384Z,23.70
2019-01-25T11:17:02.434Z,25.00
2019-01-25T11:19:30.397Z,25.60
2019-01-25T11:21:58.497Z,25.60
2019-01-25T11:24:26.439Z,25.10
2019-01-25T11:27:00.245Z,25.20
2019-01-25T11:29:24.152Z,25.50
2019-01-25T11:31:53.346Z,26.20
2019-01-25T11:34:21.417Z,26.80
2019-01-25T11:36:49.598Z,28.10
2019-01-25T11:39:17.739Z,29.60
2019-01-25T11:41:45.734Z,31.00
2019-01-25T11:44:13.702Z,33.30
2019-01-25T11:46:41.753Z,36.30
2019-01-25T11:49:09.829Z,36.10
2019-01-25T11:51:37.816Z,36.30
2019-01-25T11:54:06.196Z,38.90
2019-01-25T11:56:34.166Z,40.00
2019-01-25T11:59:02.800Z,41.60
2019-01-25T12:01:30.803Z,42.90
2019-01-25T12:03:58.766Z,44.50
2019-01-25T12:06:27.143Z,45.20
2019-01-25T12:08:55.142Z,45.00
2019-01-25T12:11:23.085Z,44.90
2019-01-25T12:13:51.153Z,45.00
2019-01-25T12:16:19.222Z,44.50
2019-01-25T12:18:47.227Z,44.90
2019-01-25T12:21:15.291Z,44.20
2019-01-25T12:23:43.263Z,43.10
2019-01-25T12:26:11.411Z,43.10
2019-01-25T12:28:39.509Z,43.50
2019-01-25T12:31:07.479Z,44.20
2019-01-25T12:33:35.930Z,45.00
2019-01-25T12:36:03.899Z,45.30
2019-01-25T12:38:33.604Z,46.20
2019-01-25T12:41:01.710Z,46.60
2019-01-25T12:43:29.684Z,47.70
2019-01-25T12:45:57.729Z,47.40
2019-01-25T12:48:27.106Z,48.00
2019-01-25T12:50:55.609Z,47.60
2019-01-25T12:53:23.687Z,47.80
2019-01-25T12:55:51.880Z,46.80
2019-01-25T12:58:20.057Z,47.40
2019-01-25T13:00:51.371Z,47.20
2019-01-25T13:03:21.407Z,47.60
2019-01-25T13:05:49.085Z,47.60
2019-01-25T13:08:17.258Z,47.00
2019-01-25T13:10:45.314Z,46.40
2019-01-25T13:13:13.405Z,46.70
2019-01-25T13:15:41.854Z,46.20
2019-01-25T13:18:09.854Z,46.20
2019-01-25T13:20:39.466Z,46.70
2019-01-25T13:23:09.147Z,47.00
2019-01-25T13:25:37.213Z,45.90
2019-01-25T13:28:07.001Z,46.70
2019-01-25T13:30:35.025Z,47.50
2019-01-25T13:33:03.505Z,48.10
2019-01-25T13:35:32.829Z,47.70
2019-01-25T13:38:00.983Z,46.70
2019-01-25T13:40:28.949Z,46.80
2019-01-25T13:42:56.893Z,45.90
2019-01-25T13:45:25.293Z,44.10
2019-01-25T13:47:54.404Z,44.70
2019-01-25T13:50:22.349Z,45.50
2019-01-25T13:52:50.541Z,47.20
2019-01-25T13:55:18.510Z,48.10
2019-01-25T13:57:46.445Z,49.40
2019-01-25T14:00:14.654Z,50.20
2019-01-25T14:02:42.620Z,50.90
2019-01-25T14:05:10.694Z,51.60
2019-01-25T14:07:38.764Z,52.90
2019-01-25T14:10:06.809Z,53.60
2019-01-25T14:12:34.805Z,54.30
2019-01-25T14:15:02.754Z,54.40
2019-01-25T14:17:30.852Z,54.50
2019-01-25T14:19:58.816Z,54.60
2019-01-25T14:22:26.760Z,54.80
2019-01-25T14:24:54.733Z,56.60
2019-01-25T14:27:22.828Z,56.60
2019-01-25T14:29:50.900Z,57.10
2019-01-25T14:32:18.945Z,57.30
2019-01-25T14:34:46.919Z,57.90
2019-01-25T14:37:15.114Z,54.50
2019-01-25T14:39:43.083Z,52.80
2019-01-25T14:42:11.052Z,49.70
2019-01-25T14:44:39.208Z,46.20
2019-01-25T14:47:07.407Z,44.80
2019-01-25T14:49:35.371Z,45.50
2019-01-25T14:52:03.316Z,46.30
2019-01-25T14:54:31.566Z,46.80
2019-01-25T14:56:59.558Z,49.20
2019-01-25T14:59:27.470Z,50.80
2019-01-25T15:01:55.529Z,54.00
2019-01-25T15:04:23.598Z,55.90
2019-01-25T15:06:51.541Z,56.80
2019-01-25T15:09:19.740Z,56.60
2019-01-25T15:11:47.813Z,56.20
2019-01-25T15:14:15.781Z,56.10
2019-01-25T15:16:43.930Z,57.10
2019-01-25T15:19:13.628Z,59.20
2019-01-25T15:21:41.946Z,61.00
2019-01-25T15:24:10.119Z,63.50
2019-01-25T15:26:38.088Z,64.50
2019-01-25T15:29:06.135Z,65.60
2019-01-25T15:31:34.334Z,66.60
2019-01-25T15:34:04.303Z,68.00
2019-01-25T15:36:32.502Z,69.10
2019-01-25T15:39:01.637Z,69.60
2019-01-25T15:41:31.579Z,71.30
2019-01-25T15:43:59.710Z,71.60
2019-01-25T15:46:27.655Z,72.50
2019-01-25T15:48:55.855Z,74.10
2019-01-25T15:51:25.777Z,75.50
2019-01-25T15:53:53.943Z,76.50
2019-01-25T15:56:22.219Z,77.20
2019-01-25T15:58:50.597Z,78.40
2019-01-25T16:01:18.983Z,80.50
2019-01-25T16:03:47.378Z,82.10
2019-01-25T16:06:15.438Z,83.40
2019-01-25T16:08:43.502Z,84.40
2019-01-25T16:11:11.545Z,85.50
2019-01-25T16:13:39.849Z,86.10
2019-01-25T16:16:08.020Z,86.70
2019-01-25T16:18:37.673Z,87.70
2019-01-25T16:21:05.749Z,89.20
2019-01-25T16:23:33.880Z,90.30
2019-01-25T16:26:01.830Z,90.00
2019-01-25T16:28:30.836Z,89.40
2019-01-25T16:30:58.886Z,88.90
2019-01-25T16:33:26.881Z,88.30
2019-01-25T16:35:54.823Z,88.10
2019-01-25T16:38:23.126Z,87.80
2019-01-25T16:40:51.204Z,88.40
2019-01-25T16:43:19.374Z,87.90
2019-01-25T16:45:47.341Z,88.90
2019-01-25T16:48:15.589Z,89.40
2019-01-25T16:50:43.662Z,89.30
2019-01-25T16:53:11.738Z,89.50
2019-01-25T16:55:44.161Z,89.80
2019-01-25T16:58:12.694Z,90.20
2019-01-25T17:00:42.192Z,90.30
2019-01-25T17:03:10.296Z,90.50
2019-01-25T17:05:38.268Z,90.80
2019-01-25T17:08:06.326Z,91.00
2019-01-25T17:10:34.282Z,91.00
2019-01-25T17:13:02.481Z,91.00
2019-01-25T17:15:30.450Z,91.30
2019-01-25T17:17:58.421Z,91.30
2019-01-25T17:20:26.595Z,91.30
2019-01-25T17:22:54.639Z,91.00
2019-01-25T17:25:22.613Z,91.10
2019-01-25T17:27:50.577Z,91.10
2019-01-25T17:30:18.573Z,91.40
2019-01-25T17:32:46.746Z,91.40
2019-01-25T17:35:14.818Z,91.90
2019-01-25T17:37:44.732Z,91.60
2019-01-25T17:40:12.678Z,92.30
2019-01-25T17:42:41.865Z,92.20
2019-01-25T17:45:10.059Z,92.20
2019-01-25T17:47:38.146Z,91.50
2019-01-25T17:50:06.465Z,91.20
2019-01-25T17:52:34.701Z,90.60
2019-01-25T17:55:02.671Z,90.40
2019-01-25T17:57:30.854Z,90.30
2019-01-25T17:59:58.814Z,90.20
2019-01-25T18:02:28.669Z,90.40
2019-01-25T18:04:56.905Z,90.90
2019-01-25T18:07:25.077Z,91.00
2019-01-25T18:09:54.887Z,91.70
2019-01-25T18:12:22.990Z,92.00
2019-01-25T18:14:50.906Z,91.70
2019-01-25T18:17:19.104Z,92.30
2019-01-25T18:19:47.059Z,92.00
2019-01-25T18:22:15.148Z,91.90
2019-01-25T18:24:43.218Z,91.80
2019-01-25T18:27:11.289Z,92.10
2019-01-25T18:29:39.441Z,91.70
2019-01-25T18:32:07.625Z,90.20
2019-01-25T18:34:35.812Z,88.90
2019-01-25T18:37:03.782Z,85.70
2019-01-25T18:39:31.751Z,83.70
2019-01-25T18:41:59.851Z,83.70
2019-01-25T18:44:27.870Z,81.20
2019-01-25T18:46:55.966Z,79.60
2019-01-25T18:49:26.300Z,80.20
2019-01-25T18:51:54.261Z,77.30
2019-01-25T18:54:22.332Z,75.80
2019-01-25T18:56:50.611Z,74.90
2019-01-25T18:59:18.553Z,72.20
2019-01-25T19:01:46.741Z,70.80
2019-01-25T19:04:14.775Z,71.40
2019-01-25T19:06:42.998Z,71.20
2019-01-25T19:09:11.175Z,71.20
2019-01-25T19:11:41.889Z,69.80
2019-01-25T19:14:09.848Z,69.70
2019-01-25T19:19:18.209Z,70.30
2019-01-25T19:21:46.278Z,69.80
2019-01-25T19:24:14.431Z,70.20
2019-01-25T19:26:42.429Z,69.80
2019-01-25T19:29:10.362Z,71.00
2019-01-25T19:31:38.336Z,69.50
2019-01-25T19:34:07.938Z,69.20
2019-01-25T19:36:35.940Z,68.70
2019-01-25T19:39:06.261Z,69.00
2019-01-25T19:41:34.537Z,68.20
2019-01-25T19:44:02.586Z,68.20
2019-01-25T19:46:30.555Z,68.80
2019-01-25T19:48:58.652Z,69.30
2019-01-25T19:51:26.621Z,68.50
2019-01-25T19:53:54.591Z,68.60
2019-01-25T19:56:22.661Z,69.30
2019-01-25T19:58:50.631Z,69.00
2019-01-25T20:01:18.677Z,69.10
2019-01-25T20:03:46.676Z,69.50
2019-01-25T20:06:14.744Z,69.50
2019-01-25T20:08:43.355Z,69.50
2019-01-25T20:11:12.600Z,69.70
2019-01-25T20:13:40.702Z,69.70
2019-01-25T20:16:08.670Z,69.40
2019-01-25T20:18:36.641Z,70.60
2019-01-25T20:21:04.710Z,69.70
2019-01-25T20:23:32.657Z,69.70
2019-01-25T20:26:00.856Z,69.70
2019-01-25T20:28:28.793Z,70.20
2019-01-25T20:30:59.865Z,70.90
2019-01-25T20:33:29.272Z,71.10
2019-01-25T20:35:57.342Z,71.00
2019-01-25T20:38:25.309Z,70.60
2019-01-25T20:40:53.281Z,71.70
2019-01-25T20:43:21.360Z,71.30
2019-01-25T20:45:49.424Z,71.80
2019-01-25T20:48:17.393Z,71.50
2019-01-25T20:50:45.373Z,71.60
2019-01-25T20:53:13.335Z,72.00
2019-01-25T20:55:41.505Z,72.60
2019-01-25T20:58:09.577Z,73.50
2019-01-25T21:00:37.819Z,73.20
2019-01-25T21:03:06.103Z,73.30
2019-01-25T21:05:34.207Z,74.40
2019-01-25T21:08:02.378Z,73.90
2019-01-25T21:10:31.553Z,74.00
2019-01-25T21:13:00.877Z,74.20
2019-01-25T21:15:35.099Z,73.80
2019-01-25T21:18:00.584Z,73.60
2019-01-25T21:20:53.596Z,73.80
2019-01-25T21:23:23.555Z,73.80
2019-01-25T21:25:51.647Z,73.70
2019-01-25T21:28:19.827Z,73.40
2019-01-25T21:30:47.770Z,73.50
2019-01-25T21:33:15.863Z,73.80
2019-01-25T21:35:43.935Z,73.70
2019-01-25T21:38:11.887Z,73.10
2019-01-25T21:40:39.850Z,73.60
2019-01-25T21:43:09.086Z,74.10
2019-01-25T21:45:42.989Z,75.40
2019-01-25T21:48:08.388Z,76.30
2019-01-25T21:50:36.485Z,77.00
2019-01-25T21:53:04.608Z,78.00
2019-01-25T21:55:35.744Z,78.20
2019-01-25T21:58:05.438Z,78.50
2019-01-25T22:00:31.926Z,79.80
2019-01-25T22:02:59.896Z,80.30
2019-01-25T22:05:27.948Z,80.60
2019-01-25T22:07:56.345Z,82.10
2019-01-25T22:10:24.595Z,83.50
2019-01-25T22:12:52.798Z,85.50
2019-01-25T22:15:20.944Z,84.30
2019-01-25T22:17:49.228Z,84.80
2019-01-25T22:20:17.500Z,85.10
2019-01-25T22:22:45.671Z,85.30
2019-01-25T22:25:13.893Z,85.50
2019-01-25T22:27:42.047Z,85.40
2019-01-25T22:30:14.250Z,86.40
2019-01-25T22:32:42.390Z,86.00
2019-01-25T22:35:10.460Z,85.80
2019-01-25T22:37:39.964Z,85.80
2019-01-25T22:40:08.117Z,85.90
2019-01-25T22:42:37.033Z,86.10
2019-01-25T22:45:05.283Z,86.50
2019-01-25T22:47:35.605Z,86.70
2019-01-25T22:50:03.604Z,86.80
2019-01-25T22:52:31.672Z,87.10
2019-01-25T22:54:59.645Z,87.70
2019-01-25T22:57:30.274Z,87.40
2019-01-25T22:59:57.321Z,86.70
2019-01-25T23:02:25.394Z,87.40
2019-01-25T23:04:53.282Z,88.20
2019-01-25T23:07:21.436Z,87.30
2019-01-25T23:09:49.403Z,87.20
2019-01-25T23:12:18.358Z,87.80
2019-01-25T23:14:48.276Z,87.60
2019-01-25T23:17:16.382Z,87.10
2019-01-25T23:19:44.454Z,87.10
2019-01-25T23:22:12.527Z,87.90
2019-01-25T23:24:40.570Z,87.40
2019-01-25T23:27:08.566Z,87.80
2019-01-25T23:29:36.537Z,88.30
2019-01-25T23:32:05.623Z,88.60
2019-01-25T23:34:33.602Z,89.10
2019-01-25T23:37:01.546Z,90.20
2019-01-25T23:39:29.613Z,90.60
2019-01-25T23:41:57.709Z,90.30
2019-01-25T23:44:27.013Z,90.30
2019-01-25T23:46:54.983Z,90.00
2019-01-25T23:49:23.055Z,90.30
2019-01-25T23:51:52.857Z,90.40
2019-01-25T23:54:20.940Z,90.10
2019-01-25T23:56:48.889Z,89.80
2019-01-25T23:59:16.878Z,89.60
